Strona główna
METAR-TAF:

METAR-TAF

Lotnisko :

Port lotniczy Erie

Erie, Pensylwania, Stany Zjednoczone

Szerokość geograficzna: 42-04-48N, Długość geograficzna: 080-10-57W, wysokość: 223 m

Aktualna obserwacja pogody

Raport powstał 32 minut temu, godzina 11:51 UTC
Wiatr 12 kt od zachodnio-południowy zachód w porywach dochodzący do 18 kt
Temperatura 22°C
Wilgotność 78%
Ciśnienie 1009 hPa
Widzialność: 16.1 km
Mało chmury na wysokości 1500 ft

METAR: KERI 251151Z 24012G18KT 10SM FEW015 22/18 A2981 RMK AO2 SLP091 70037 T02170178 10222 20200 51022

czas: 08:23 (12:23 UTC)

Prognoza

Raport powstał 52 minut temu, godzina 11:31 UTC
Prognoza ważna od 25 godzina 12 UTC do 26 godzina 12 UTC
Wiatr 10 kt od zachodnio-południowy zachód w porywach dochodzący do 18 kt
Widzialność: 10 km
bezchmurnie
Od 26 godzina 0000 UTC
Wiatr 8 kt od południowo-południowy zachód
Widzialność: 10 km
Rozproszone chmury na wysokości 25000 ft

TAF: KERI 251131Z 2512/2612 24010G18KT P6SM SKC FM260000 21008KT P6SM SCT250

Obserwacja i prognoza pogody dla ponad 4000 lotnisk (raport METAR i TAF).

Dostępne stacje oznaczono żółtymi i czerwonymi punktami na mapie.

Najedź kursorem aby zobaczyć nazwę stacji.

Kliknij aby zobaczyć obserwacje i prognozy pogody.

Aby zmienić mapę: kliknij na zielony przycisk z czarnym krzyżykiem, aby powiększyć; na zielony przycisk z myślnikiem, aby pomniejszyć; na zielone strzałki, aby przejść do map sąsiednich.


METAR-TAF: